Time,TemperatureF,DewpointF,PressureIn,WindDirection,WindDirectionDegrees,WindSpeedMPH,WindSpeedGustMPH,Humidity,HourlyPrecipIn,Conditions,Clouds,dailyrainin,SoftwareType,DateUTC
2013-04-01 00:00:00,33.0,-99.9,-100.00,SW,216,11.0,24.0,-999,-99.99,,,-99.99,,2013-04-01 06:00:00,
2013-04-01 00:34:00,33.0,-99.9,-100.00,SW,216,11.0,24.0,-999,-99.99,,,-99.99,,2013-04-01 06:34:00,
2013-04-01 00:43:00,33.0,-99.9,-100.00,SW,216,11.0,24.0,-999,-99.99,,,-99.99,,2013-04-01 06:43:00,
2013-04-01 00:53:00,33.0,-99.9,-100.00,SW,216,11.0,24.0,-999,-99.99,,,-99.99,,2013-04-01 06:53:00,
2013-04-01 01:00:00,32.0,-99.9,-100.00,SW,229,15.0,29.0,-999,-99.99,,,-99.99,,2013-04-01 07:00:00,
2013-04-01 01:32:00,32.0,-99.9,-100.00,SW,229,15.0,29.0,-999,-99.99,,,-99.99,,2013-04-01 07:32:00,
2013-04-01 01:43:00,32.0,-99.9,-100.00,SW,229,15.0,29.0,-999,-99.99,,,-99.99,,2013-04-01 07:43:00,
2013-04-01 01:53:00,32.0,-99.9,-100.00,SW,229,15.0,29.0,-999,-99.99,,,-99.99,,2013-04-01 07:53:00,
2013-04-01 02:00:00,32.0,-99.9,-100.00,South,186,7.0,21.0,-999,-99.99,,,-99.99,,2013-04-01 08:00:00,
2013-04-01 02:32:00,32.0,-99.9,-100.00,South,186,7.0,21.0,-999,-99.99,,,-99.99,,2013-04-01 08:32:00,
2013-04-01 02:44:00,32.0,-99.9,-100.00,South,186,7.0,21.0,-999,-99.99,,,-99.99,,2013-04-01 08:44:00,
2013-04-01 02:53:00,32.0,-99.9,-100.00,South,186,7.0,21.0,-999,-99.99,,,-99.99,,2013-04-01 08:53:00,
2013-04-01 03:00:00,33.0,-99.9,-100.00,SE,132,5.0,12.0,-999,-99.99,,,-99.99,,2013-04-01 09:00:00,
2013-04-01 03:33:00,33.0,-99.9,-100.00,SE,132,5.0,12.0,-999,-99.99,,,-99.99,,2013-04-01 09:33:00,
2013-04-01 03:43:00,33.0,-99.9,-100.00,SE,132,5.0,12.0,-999,-99.99,,,-99.99,,2013-04-01 09:43:00,
2013-04-01 03:54:00,33.0,-99.9,-100.00,SE,132,5.0,12.0,-999,-99.99,,,-99.99,,2013-04-01 09:54:00,
2013-04-01 04:00:00,32.0,-99.9,-100.00,SSE,159,8.0,17.0,-999,-99.99,,,-99.99,,2013-04-01 10:00:00,
2013-04-01 04:34:00,32.0,-99.9,-100.00,SSE,159,8.0,17.0,-999,-99.99,,,-99.99,,2013-04-01 10:34:00,
2013-04-01 04:43:00,32.0,-99.9,-100.00,SSE,159,8.0,17.0,-999,-99.99,,,-99.99,,2013-04-01 10:43:00,
2013-04-01 04:54:00,32.0,-99.9,-100.00,SSE,159,8.0,17.0,-999,-99.99,,,-99.99,,2013-04-01 10:54:00,
2013-04-01 05:00:00,29.0,-99.9,-100.00,SSW,206,7.0,20.0,-999,-99.99,,,-99.99,,2013-04-01 11:00:00,
2013-04-01 05:33:00,29.0,-99.9,-100.00,SSW,206,7.0,20.0,-999,-99.99,,,-99.99,,2013-04-01 11:33:00,
2013-04-01 05:43:00,29.0,-99.9,-100.00,SSW,206,7.0,20.0,-999,-99.99,,,-99.99,,2013-04-01 11:43:00,
2013-04-01 05:53:00,29.0,-99.9,-100.00,SSW,206,7.0,20.0,-999,-99.99,,,-99.99,,2013-04-01 11:53:00,
2013-04-01 06:00:00,30.0,-99.9,-100.00,SSW,211,10.0,20.0,-999,-99.99,,,-99.99,,2013-04-01 12:00:00,
2013-04-01 06:33:00,30.0,-99.9,-100.00,SSW,211,10.0,20.0,-999,-99.99,,,-99.99,,2013-04-01 12:33:00,
2013-04-01 06:43:00,30.0,-99.9,-100.00,SSW,211,10.0,20.0,-999,-99.99,,,-99.99,,2013-04-01 12:43:00,
2013-04-01 06:53:00,30.0,-99.9,-100.00,SSW,211,10.0,20.0,-999,-99.99,,,-99.99,,2013-04-01 12:53:00,
2013-04-01 07:00:00,29.0,-99.9,-100.00,South,180,10.0,19.0,-999,-99.99,,,-99.99,,2013-04-01 13:00:00,
2013-04-01 07:33:00,29.0,-99.9,-100.00,South,180,10.0,19.0,-999,-99.99,,,-99.99,,2013-04-01 13:33:00,
2013-04-01 07:43:00,29.0,-99.9,-100.00,South,180,10.0,19.0,-999,-99.99,,,-99.99,,2013-04-01 13:43:00,
2013-04-01 07:53:00,29.0,-99.9,-100.00,South,180,10.0,19.0,-999,-99.99,,,-99.99,,2013-04-01 13:53:00,
2013-04-01 08:00:00,28.0,-99.9,-100.00,South,174,10.0,20.0,-999,-99.99,,,-99.99,,2013-04-01 14:00:00,
2013-04-01 08:33:00,28.0,-99.9,-100.00,South,174,10.0,20.0,-999,-99.99,,,-99.99,,2013-04-01 14:33:00,
2013-04-01 08:43:00,28.0,-99.9,-100.00,South,174,10.0,20.0,-999,-99.99,,,-99.99,,2013-04-01 14:43:00,
2013-04-01 08:53:00,28.0,-99.9,-100.00,South,174,10.0,20.0,-999,-99.99,,,-99.99,,2013-04-01 14:53:00,
2013-04-01 09:00:00,29.0,-99.9,-100.00,SW,233,4.0,11.0,-999,-99.99,,,-99.99,,2013-04-01 15:00:00,
2013-04-01 09:34:00,29.0,-99.9,-100.00,SW,233,4.0,11.0,-999,-99.99,,,-99.99,,2013-04-01 15:34:00,
2013-04-01 09:44:00,29.0,-99.9,-100.00,SW,233,4.0,11.0,-999,-99.99,,,-99.99,,2013-04-01 15:44:00,
2013-04-01 09:54:00,29.0,-99.9,-100.00,SW,233,4.0,11.0,-999,-99.99,,,-99.99,,2013-04-01 15:54:00,
2013-04-01 11:00:00,33.0,-99.9,-100.00,SSW,208,3.0,9.0,-999,-99.99,,,-99.99,,2013-04-01 17:00:00,
2013-04-01 11:32:00,33.0,-99.9,-100.00,SSW,208,3.0,9.0,-999,-99.99,,,-99.99,,2013-04-01 17:32:00,
2013-04-01 11:42:00,33.0,-99.9,-100.00,SSW,208,3.0,9.0,-999,-99.99,,,-99.99,,2013-04-01 17:42:00,
2013-04-01 11:54:00,33.0,-99.9,-100.00,SSW,208,3.0,9.0,-999,-99.99,,,-99.99,,2013-04-01 17:54:00,
2013-04-01 12:00:00,32.0,-99.9,-100.00,WSW,240,4.0,12.0,-999,-99.99,,,-99.99,,2013-04-01 18:00:00,
2013-04-01 12:33:00,32.0,-99.9,-100.00,WSW,240,4.0,12.0,-999,-99.99,,,-99.99,,2013-04-01 18:33:00,
2013-04-01 12:43:00,32.0,-99.9,-100.00,WSW,240,4.0,12.0,-999,-99.99,,,-99.99,,2013-04-01 18:43:00,
2013-04-01 12:54:00,32.0,-99.9,-100.00,WSW,240,4.0,12.0,-999,-99.99,,,-99.99,,2013-04-01 18:54:00,
2013-04-01 13:00:00,27.0,-99.9,-100.00,South,174,10.0,22.0,-999,-99.99,,,-99.99,,2013-04-01 19:00:00,
2013-04-01 13:33:00,27.0,-99.9,-100.00,South,174,10.0,22.0,-999,-99.99,,,-99.99,,2013-04-01 19:33:00,
2013-04-01 13:43:00,27.0,-99.9,-100.00,South,174,10.0,22.0,-999,-99.99,,,-99.99,,2013-04-01 19:43:00,
2013-04-01 13:53:00,27.0,-99.9,-100.00,South,174,10.0,22.0,-999,-99.99,,,-99.99,,2013-04-01 19:53:00,
2013-04-01 14:00:00,29.0,-99.9,-100.00,SSW,202,3.0,13.0,-999,-99.99,,,-99.99,,2013-04-01 20:00:00,
2013-04-01 14:33:00,29.0,-99.9,-100.00,SSW,202,3.0,13.0,-999,-99.99,,,-99.99,,2013-04-01 20:33:00,
2013-04-01 14:43:00,29.0,-99.9,-100.00,SSW,202,3.0,13.0,-999,-99.99,,,-99.99,,2013-04-01 20:43:00,
2013-04-01 14:53:00,29.0,-99.9,-100.00,SSW,202,3.0,13.0,-999,-99.99,,,-99.99,,2013-04-01 20:53:00,
2013-04-01 15:00:00,35.0,-99.9,-100.00,SSE,151,1.0,6.0,-999,-99.99,,,-99.99,,2013-04-01 21:00:00,
2013-04-01 15:33:00,35.0,-99.9,-100.00,SSE,151,1.0,6.0,-999,-99.99,,,-99.99,,2013-04-01 21:33:00,
2013-04-01 15:44:00,35.0,-99.9,-100.00,SSE,151,1.0,6.0,-999,-99.99,,,-99.99,,2013-04-01 21:44:00,
2013-04-01 15:53:00,35.0,-99.9,-100.00,SSE,151,1.0,6.0,-999,-99.99,,,-99.99,,2013-04-01 21:53:00,
2013-04-01 16:00:00,33.0,-99.9,-100.00,West,261,2.0,6.0,-999,-99.99,,,-99.99,,2013-04-01 22:00:00,
2013-04-01 16:33:00,33.0,-99.9,-100.00,West,261,2.0,6.0,-999,-99.99,,,-99.99,,2013-04-01 22:33:00,
2013-04-01 16:44:00,33.0,-99.9,-100.00,West,261,2.0,6.0,-999,-99.99,,,-99.99,,2013-04-01 22:44:00,
2013-04-01 16:53:00,33.0,-99.9,-100.00,West,261,2.0,6.0,-999,-99.99,,,-99.99,,2013-04-01 22:53:00,
2013-04-01 17:00:00,33.0,-99.9,-100.00,NNE,15,2.0,6.0,-999,-99.99,,,-99.99,,2013-04-01 23:00:00,
2013-04-01 17:32:00,33.0,-99.9,-100.00,NNE,15,2.0,6.0,-999,-99.99,,,-99.99,,2013-04-01 23:32:00,
2013-04-01 17:43:00,33.0,-99.9,-100.00,NNE,15,2.0,6.0,-999,-99.99,,,-99.99,,2013-04-01 23:43:00,
2013-04-01 17:53:00,33.0,-99.9,-100.00,NNE,15,2.0,6.0,-999,-99.99,,,-99.99,,2013-04-01 23:53:00,
2013-04-01 18:00:00,29.0,-99.9,-100.00,SSW,213,5.0,14.0,-999,-99.99,,,-99.99,,2013-04-02 00:00:00,
2013-04-01 18:33:00,29.0,-99.9,-100.00,SSW,213,5.0,14.0,-999,-99.99,,,-99.99,,2013-04-02 00:33:00,
2013-04-01 18:43:00,29.0,-99.9,-100.00,SSW,213,5.0,14.0,-999,-99.99,,,-99.99,,2013-04-02 00:43:00,
2013-04-01 18:53:00,29.0,-99.9,-100.00,SSW,213,5.0,14.0,-999,-99.99,,,-99.99,,2013-04-02 00:53:00,
2013-04-01 19:00:00,28.0,-99.9,-100.00,NE,46,2.0,6.0,-999,-99.99,,,-99.99,,2013-04-02 01:00:00,
2013-04-01 19:32:00,28.0,-99.9,-100.00,NE,46,2.0,6.0,-999,-99.99,,,-99.99,,2013-04-02 01:32:00,
2013-04-01 19:43:00,28.0,-99.9,-100.00,NE,46,2.0,6.0,-999,-99.99,,,-99.99,,2013-04-02 01:43:00,
2013-04-01 19:53:00,28.0,-99.9,-100.00,NE,46,2.0,6.0,-999,-99.99,,,-99.99,,2013-04-02 01:53:00,
2013-04-01 20:00:00,27.0,-99.9,-100.00,SSW,205,0.0,3.0,-999,-99.99,,,-99.99,,2013-04-02 02:00:00,
2013-04-01 20:33:00,27.0,-99.9,-100.00,SSW,205,0.0,3.0,-999,-99.99,,,-99.99,,2013-04-02 02:33:00,
2013-04-01 20:43:00,27.0,-99.9,-100.00,SSW,205,0.0,3.0,-999,-99.99,,,-99.99,,2013-04-02 02:43:00,
2013-04-01 20:53:00,27.0,-99.9,-100.00,SSW,205,0.0,3.0,-999,-99.99,,,-99.99,,2013-04-02 02:53:00,
2013-04-01 21:00:00,27.0,-99.9,-100.00,North,0,0.0,2.0,-999,-99.99,,,-99.99,,2013-04-02 03:00:00,
2013-04-01 21:34:00,27.0,-99.9,-100.00,North,0,0.0,2.0,-999,-99.99,,,-99.99,,2013-04-02 03:34:00,
2013-04-01 21:44:00,27.0,-99.9,-100.00,North,0,0.0,2.0,-999,-99.99,,,-99.99,,2013-04-02 03:44:00,
2013-04-01 21:53:00,27.0,-99.9,-100.00,North,0,0.0,2.0,-999,-99.99,,,-99.99,,2013-04-02 03:53:00,
2013-04-01 22:00:00,26.0,-99.9,-100.00,West,266,2.0,7.0,-999,-99.99,,,-99.99,,2013-04-02 04:00:00,
2013-04-01 22:33:00,26.0,-99.9,-100.00,West,266,2.0,7.0,-999,-99.99,,,-99.99,,2013-04-02 04:33:00,
2013-04-01 22:43:00,26.0,-99.9,-100.00,West,266,2.0,7.0,-999,-99.99,,,-99.99,,2013-04-02 04:43:00,
2013-04-01 22:53:00,26.0,-99.9,-100.00,West,266,2.0,7.0,-999,-99.99,,,-99.99,,2013-04-02 04:53:00,
2013-04-01 23:00:00,26.0,-99.9,-100.00,SW,226,6.0,13.0,-999,-99.99,,,-99.99,,2013-04-02 05:00:00,
2013-04-01 23:33:00,26.0,-99.9,-100.00,SW,226,6.0,13.0,-999,-99.99,,,-99.99,,2013-04-02 05:33:00,
2013-04-01 23:43:00,26.0,-99.9,-100.00,SW,226,6.0,13.0,-999,-99.99,,,-99.99,,2013-04-02 05:43:00,
2013-04-01 23:53:00,26.0,-99.9,-100.00,SW,226,6.0,13.0,-999,-99.99,,,-99.99,,2013-04-02 05:53:00,